GCTS/TFS METAR and TAF weather

Enter ICAO airport designator
Station Type Date Time Source
GCTS METAR 2020/02/24 22:30 UTC NOAA

GCTS 242230Z 06018KT CAVOK 26/03 Q1024 NOSIG


Station Type Date Time Source
GCTS Decoded METAR 2020/02/24 22:30 UTC NOAA

Tenerife Sur, Spain (GCTS) 28-03N 016-34W 77M
Feb 24, 2020 - 05:30 PM EST / 2020.02.24 2230 UTC
Wind: from the ENE (060 degrees) at 21 MPH (18 KT):0
Visibility: greater than 7 mile(s):0
Temperature: 78 F (26 C)
Dew Point: 37 F (3 C)
Relative Humidity: 22%
Pressure (altimeter): 30.24 in. Hg (1024 hPa)
ob: GCTS 242230Z 06018KT CAVOK 26/03 Q1024 NOSIG
cycle: 22

Station Type Date Time Source
GCTS TAF 2020/02/24 21:27 UTC NOAA

TAF GCTS 242000Z 2421/2521 03011KT 8000 NSC TX30/2513Z TN20/2506Z PROB30
TEMPO 2421/2503 4500 HZ PROB30
TEMPO 2421/2507 SCT090TCU
BECMG 2508/2510 09017KT

Example: see airport list